Time;durP1;ratioP1;P1;durP2;ratioP2;P2;SDS_P1;SDS_P2;PMS_P1;PMS_P2;Temp;Humidity;BMP_temperature;BMP_pressure;BME280_temperature;BME280_humidity;BME280_pressure;Samples;Min_cycle;Max_cycle;Signal;HPM_P1;HPM_P2
2023/12/04 00:01:15;;;;;;;231.60;218.37;;;-0.70;99.90;;;;;;5055414;28;20037;-77
2023/12/04 00:03:41;;;;;;;320.75;302.83;;;-0.70;99.90;;;;;;5048666;28;20055;-77
2023/12/04 00:06:06;;;;;;;248.17;233.53;;;-0.70;99.90;;;;;;5062076;28;20040;-77
2023/12/04 00:08:32;;;;;;;242.33;228.73;;;-0.70;99.90;;;;;;5059614;28;20123;-77
2023/12/04 00:10:58;;;;;;;250.45;235.85;;;-0.70;99.90;;;;;;5055207;28;20776;-77
2023/12/04 00:13:24;;;;;;;213.57;201.10;;;-0.60;99.90;;;;;;5065985;28;20040;-77
2023/12/04 00:15:50;;;;;;;267.97;252.43;;;-0.60;99.90;;;;;;5064624;28;20579;-77
2023/12/04 00:18:15;;;;;;;229.23;215.87;;;-0.60;99.90;;;;;;5036242;28;20438;-77
2023/12/04 00:20:41;;;;;;;215.53;203.40;;;-0.60;99.90;;;;;;5050638;28;20531;-76
2023/12/04 00:23:07;;;;;;;208.53;196.00;;;-0.60;99.90;;;;;;5035422;28;20048;-77
2023/12/04 00:25:32;;;;;;;248.37;234.13;;;-0.60;99.90;;;;;;5054781;28;20061;-77
2023/12/04 00:27:58;;;;;;;227.07;214.07;;;-0.60;99.90;;;;;;5046951;28;20037;-76
2023/12/04 00:30:24;;;;;;;219.13;206.10;;;-0.60;99.90;;;;;;5037325;28;20080;-77
2023/12/04 00:32:49;;;;;;;219.77;207.27;;;-0.60;99.90;;;;;;5056638;28;20416;-76
2023/12/04 00:35:15;;;;;;;311.33;284.63;;;-0.60;99.90;;;;;;5049215;28;20075;-77
2023/12/04 00:37:41;;;;;;;288.20;272.63;;;-0.60;99.90;;;;;;5050779;28;20048;-77
2023/12/04 00:40:07;;;;;;;244.80;231.70;;;-0.60;99.90;;;;;;5064793;28;20476;-77
2023/12/04 00:42:33;;;;;;;213.93;202.07;;;-0.60;99.90;;;;;;5061039;28;20047;-77
2023/12/04 00:44:59;;;;;;;291.23;275.53;;;-0.60;99.90;;;;;;5069146;28;20028;-77
2023/12/04 00:47:24;;;;;;;312.90;295.87;;;-0.60;99.90;;;;;;5038991;28;20485;-77
2023/12/04 00:49:50;;;;;;;258.87;244.43;;;-0.60;99.90;;;;;;5040920;28;20035;-77
2023/12/04 00:52:16;;;;;;;220.77;208.10;;;-0.60;99.90;;;;;;5061573;28;20048;-77
2023/12/04 00:54:42;;;;;;;218.83;206.83;;;-0.60;99.90;;;;;;5063143;28;20041;-76
2023/12/04 00:57:09;;;;;;;212.27;200.17;;;-0.50;99.90;;;;;;5063076;28;20040;-77
2023/12/04 00:59:35;;;;;;;247.90;234.07;;;-0.50;99.90;;;;;;5037494;28;20472;-77
2023/12/04 01:02:01;;;;;;;269.27;254.33;;;-0.60;99.90;;;;;;5054951;28;20112;-77
2023/12/04 01:04:26;;;;;;;267.08;251.63;;;-0.50;99.90;;;;;;5061560;28;20286;-77
2023/12/04 01:06:52;;;;;;;230.47;217.67;;;-0.50;99.90;;;;;;5055805;28;20041;-77
2023/12/04 01:09:18;;;;;;;255.37;241.20;;;-0.50;99.90;;;;;;5056601;28;20766;-77
2023/12/04 01:11:44;;;;;;;259.33;244.07;;;-0.50;99.90;;;;;;5041992;28;20032;-77
2023/12/04 01:14:09;;;;;;;275.97;260.87;;;-0.50;99.90;;;;;;5052473;28;20029;-77
2023/12/04 01:16:35;;;;;;;244.20;230.63;;;-0.50;99.90;;;;;;5067113;28;20043;-76
2023/12/04 01:19:01;;;;;;;217.63;205.20;;;-0.50;99.90;;;;;;5056917;28;20037;-75
2023/12/04 01:21:26;;;;;;;239.83;226.50;;;-0.50;99.90;;;;;;5045824;28;20045;-75
2023/12/04 01:23:52;;;;;;;239.90;226.80;;;-0.50;99.90;;;;;;5049610;28;20041;-75
2023/12/04 01:26:18;;;;;;;238.57;225.30;;;-0.50;99.90;;;;;;5051957;28;20144;-75
2023/12/04 01:28:43;;;;;;;285.87;269.93;;;-0.50;99.90;;;;;;5048641;28;20043;-76
2023/12/04 01:31:09;;;;;;;291.33;274.87;;;-0.50;99.90;;;;;;5065113;28;20048;-75
2023/12/04 01:33:35;;;;;;;311.50;292.80;;;-0.50;99.90;;;;;;5066318;28;20079;-75
2023/12/04 01:36:02;;;;;;;265.17;250.00;;;-0.50;99.90;;;;;;5053736;28;20041;-75
2023/12/04 01:38:27;;;;;;;232.88;219.60;;;-0.50;99.90;;;;;;5043243;28;20037;-75
2023/12/04 01:40:53;;;;;;;298.40;281.90;;;-0.50;99.90;;;;;;5050495;28;20549;-75
2023/12/04 01:43:19;;;;;;;276.80;261.93;;;-0.40;99.90;;;;;;5050220;28;20029;-75
2023/12/04 01:45:45;;;;;;;271.13;255.40;;;-0.40;99.90;;;;;;5035442;28;20076;-75
2023/12/04 01:48:13;;;;;;;240.18;226.45;;;-0.40;99.90;;;;;;5048639;28;20461;-75
2023/12/04 01:50:39;;;;;;;217.05;204.38;;;-0.40;99.90;;;;;;5062776;28;20072;-75
2023/12/04 01:53:05;;;;;;;239.73;226.27;;;-0.40;99.90;;;;;;5058071;28;20128;-75
2023/12/04 01:55:33;;;;;;;224.00;211.10;;;-0.40;99.90;;;;;;5039873;28;20119;-75
2023/12/04 01:58:02;;;;;;;271.48;255.07;;;-0.40;99.90;;;;;;5035870;28;20045;-75
2023/12/04 02:00:30;;;;;;;263.92;249.38;;;-0.40;99.90;;;;;;5047932;28;20498;-74
2023/12/04 02:02:56;;;;;;;283.05;265.63;;;-0.40;99.90;;;;;;5053953;28;20110;-75
2023/12/04 02:05:23;;;;;;;214.57;202.00;;;-0.40;99.90;;;;;;5050929;28;20077;-75
2023/12/04 02:07:49;;;;;;;218.93;206.02;;;-0.40;99.90;;;;;;5058090;28;20622;-75
2023/12/04 02:10:14;;;;;;;185.20;173.73;;;-0.40;99.90;;;;;;5054958;28;20033;-74
2023/12/04 02:12:40;;;;;;;237.87;224.53;;;-0.40;99.90;;;;;;5047811;28;20040;-74
2023/12/04 02:15:07;;;;;;;185.93;174.73;;;-0.40;99.90;;;;;;5038376;28;20053;-75
2023/12/04 02:17:33;;;;;;;349.35;326.75;;;-0.40;99.90;;;;;;5040408;28;20119;-75
2023/12/04 02:19:59;;;;;;;223.13;209.52;;;-0.40;99.90;;;;;;5053652;28;20041;-74
2023/12/04 02:22:24;;;;;;;205.80;193.80;;;-0.40;99.90;;;;;;5050876;28;20052;-74
2023/12/04 02:24:50;;;;;;;194.57;183.07;;;-0.40;99.90;;;;;;5056217;28;20291;-74
2023/12/04 02:27:23;;;;;;;234.23;220.73;;;-0.40;99.90;;;;;;5038541;28;20055;-74
2023/12/04 02:29:56;;;;;;;239.20;225.88;;;-0.40;99.90;;;;;;5040463;28;20074;-74
2023/12/04 02:32:24;;;;;;;287.80;271.50;;;-0.40;99.90;;;;;;5065831;28;20056;-75
2023/12/04 02:34:52;;;;;;;278.50;262.15;;;-0.40;99.90;;;;;;5066564;28;20044;-74
2023/12/04 02:37:18;;;;;;;209.95;197.75;;;-0.40;99.90;;;;;;5063763;28;20037;-74
2023/12/04 02:39:44;;;;;;;251.35;236.15;;;-0.40;99.90;;;;;;5041977;28;20044;-74
2023/12/04 02:42:13;;;;;;;224.40;211.70;;;-0.40;99.90;;;;;;5043608;28;20047;-74
2023/12/04 02:44:39;;;;;;;248.20;233.70;;;-0.40;99.90;;;;;;5059105;28;20045;-74
2023/12/04 02:47:05;;;;;;;223.40;210.63;;;-0.40;99.90;;;;;;5038468;28;20120;-74
2023/12/04 02:49:31;;;;;;;244.93;231.27;;;-0.40;99.90;;;;;;5050736;28;20151;-74
2023/12/04 02:51:57;;;;;;;179.37;167.63;;;-0.40;99.90;;;;;;5033185;28;20493;-74
2023/12/04 02:54:23;;;;;;;240.25;226.63;;;-0.40;99.90;;;;;;5033939;28;20047;-74
2023/12/04 02:56:49;;;;;;;252.60;237.70;;;-0.40;99.90;;;;;;5039315;28;20124;-74
2023/12/04 02:59:15;;;;;;;248.05;233.80;;;-0.40;99.90;;;;;;5052448;28;20400;-74
2023/12/04 03:01:40;;;;;;;257.40;243.07;;;-0.40;99.90;;;;;;5043770;28;20041;-74
2023/12/04 03:04:06;;;;;;;234.20;221.07;;;-0.40;99.90;;;;;;5062035;28;20049;-74
2023/12/04 03:06:32;;;;;;;202.73;190.73;;;-0.40;99.90;;;;;;5072372;28;20132;-74
2023/12/04 03:08:59;;;;;;;213.00;200.47;;;-0.40;99.90;;;;;;5065159;28;20111;-74
2023/12/04 03:11:25;;;;;;;229.95;217.00;;;-0.40;99.90;;;;;;5056821;28;20067;-74
2023/12/04 03:13:51;;;;;;;199.45;187.63;;;-0.40;99.90;;;;;;5073668;28;20037;-74
2023/12/04 03:16:17;;;;;;;202.63;190.77;;;-0.40;99.90;;;;;;5073125;28;20076;-74
2023/12/04 03:18:44;;;;;;;235.55;222.07;;;-0.40;99.90;;;;;;5071003;28;20044;-74
2023/12/04 03:21:10;;;;;;;223.98;210.75;;;-0.40;99.90;;;;;;5058186;28;20116;-74
2023/12/04 03:23:36;;;;;;;222.80;209.57;;;-0.40;99.90;;;;;;5074587;28;20033;-74
2023/12/04 03:26:02;;;;;;;185.93;174.77;;;-0.40;99.90;;;;;;5091404;28;20042;-74
2023/12/04 03:28:28;;;;;;;264.23;249.50;;;-0.40;99.90;;;;;;5073284;28;20033;-74
2023/12/04 03:30:53;;;;;;;239.97;226.20;;;-0.40;99.90;;;;;;5092100;28;20060;-74
2023/12/04 03:33:19;;;;;;;216.07;203.60;;;-0.40;99.90;;;;;;5064563;28;20326;-74
2023/12/04 03:35:45;;;;;;;218.03;205.97;;;-0.40;99.90;;;;;;5081979;28;20092;-74
2023/12/04 03:38:10;;;;;;;223.87;211.60;;;-0.40;99.90;;;;;;5096490;28;20041;-74
2023/12/04 03:40:36;;;;;;;210.07;198.00;;;-0.40;99.90;;;;;;5082512;28;20089;-73
2023/12/04 03:43:02;;;;;;;181.80;170.87;;;-0.40;99.90;;;;;;5076683;28;20108;-73
2023/12/04 03:45:27;;;;;;;197.10;185.80;;;-0.40;99.90;;;;;;5072191;28;20098;-74
2023/12/04 03:47:53;;;;;;;217.97;205.50;;;-0.40;99.90;;;;;;5089326;28;20063;-74
2023/12/04 03:50:19;;;;;;;215.83;203.13;;;-0.30;99.90;;;;;;5073418;28;20920;-74
2023/12/04 03:52:45;;;;;;;206.43;194.37;;;-0.40;99.90;;;;;;5079045;28;20043;-74
2023/12/04 03:55:10;;;;;;;202.00;190.50;;;-0.40;99.90;;;;;;5091292;28;20032;-74
2023/12/04 03:57:36;;;;;;;235.93;223.27;;;-0.40;99.90;;;;;;5096761;28;20104;-74
2023/12/04 04:00:03;;;;;;;204.00;192.35;;;-0.40;99.90;;;;;;5093624;28;20079;-73
2023/12/04 04:02:29;;;;;;;205.40;193.90;;;-0.40;99.90;;;;;;5077629;28;20029;-74
2023/12/04 04:04:55;;;;;;;201.53;190.23;;;-0.40;99.90;;;;;;5090542;28;20052;-74
2023/12/04 04:07:20;;;;;;;191.43;180.47;;;-0.40;99.90;;;;;;5090962;28;20044;-73
2023/12/04 04:09:46;;;;;;;206.70;195.10;;;-0.40;99.90;;;;;;5089279;28;20021;-73
2023/12/04 04:12:12;;;;;;;212.20;200.33;;;-0.40;99.90;;;;;;5087419;28;20040;-73
2023/12/04 04:14:38;;;;;;;205.73;194.13;;;-0.40;99.90;;;;;;5063007;28;20039;-74
2023/12/04 04:17:04;;;;;;;202.63;191.18;;;-0.40;99.90;;;;;;5081578;28;20033;-74
2023/12/04 04:19:29;;;;;;;177.93;167.77;;;-0.40;99.90;;;;;;5071823;28;20033;-74
2023/12/04 04:21:55;;;;;;;224.13;212.00;;;-0.40;99.90;;;;;;5074107;28;20051;-73
2023/12/04 04:24:21;;;;;;;213.80;202.23;;;-0.40;99.90;;;;;;5084168;28;20029;-73
2023/12/04 04:26:47;;;;;;;185.53;174.80;;;-0.40;99.90;;;;;;5093783;28;20036;-73
2023/12/04 04:29:13;;;;;;;210.40;198.50;;;-0.40;99.90;;;;;;5085808;28;20036;-73
2023/12/04 04:31:38;;;;;;;240.95;227.50;;;-0.40;99.90;;;;;;5093723;28;20040;-73
2023/12/04 04:34:04;;;;;;;181.73;171.43;;;-0.40;99.90;;;;;;5091448;28;20033;-73
2023/12/04 04:36:30;;;;;;;206.83;195.50;;;-0.30;99.90;;;;;;5088874;28;20049;-73
2023/12/04 04:38:55;;;;;;;219.00;207.30;;;-0.40;99.90;;;;;;5085276;28;20032;-73
2023/12/04 04:41:21;;;;;;;196.20;185.17;;;-0.40;99.90;;;;;;5086274;28;20091;-73
2023/12/04 04:43:47;;;;;;;226.40;214.53;;;-0.40;99.90;;;;;;5074897;28;20044;-73
2023/12/04 04:46:12;;;;;;;211.90;200.33;;;-0.40;99.90;;;;;;5066898;28;20047;-73
2023/12/04 04:48:39;;;;;;;170.27;160.60;;;-0.40;99.90;;;;;;5088304;28;20033;-73
2023/12/04 04:51:05;;;;;;;176.30;166.52;;;-0.40;99.90;;;;;;5087496;28;20029;-73
2023/12/04 04:53:31;;;;;;;166.43;156.80;;;-0.40;99.90;;;;;;5075610;28;20096;-74
2023/12/04 04:55:56;;;;;;;178.27;168.27;;;-0.40;99.90;;;;;;5080836;28;20035;-73
2023/12/04 04:58:22;;;;;;;201.87;190.97;;;-0.40;99.90;;;;;;5092617;28;20076;-74
2023/12/04 05:00:48;;;;;;;262.90;246.93;;;-0.40;99.90;;;;;;5067936;28;20067;-73
2023/12/04 05:03:13;;;;;;;200.60;189.47;;;-0.40;99.90;;;;;;5073864;28;20024;-73
2023/12/04 05:05:39;;;;;;;215.43;203.90;;;-0.40;99.90;;;;;;5083449;28;20025;-73
2023/12/04 05:08:05;;;;;;;174.67;164.53;;;-0.40;99.90;;;;;;5089894;28;20043;-73
2023/12/04 05:10:30;;;;;;;218.77;207.07;;;-0.40;99.90;;;;;;5059911;28;20044;-75
2023/12/04 05:12:56;;;;;;;174.73;165.13;;;-0.40;99.90;;;;;;5069421;28;20052;-73
2023/12/04 05:15:22;;;;;;;187.83;177.20;;;-0.40;99.90;;;;;;5059590;28;20052;-73
2023/12/04 05:17:47;;;;;;;158.53;149.43;;;-0.40;99.90;;;;;;5083724;28;20048;-73
2023/12/04 05:20:13;;;;;;;204.50;193.40;;;-0.40;99.90;;;;;;5081454;28;20036;-73
2023/12/04 05:22:40;;;;;;;173.43;163.60;;;-0.40;99.90;;;;;;5063927;28;20356;-73
2023/12/04 05:25:06;;;;;;;161.10;151.90;;;-0.40;99.90;;;;;;5057575;28;20044;-73
2023/12/04 05:27:32;;;;;;;171.30;161.75;;;-0.40;99.90;;;;;;5077107;28;20040;-73
2023/12/04 05:29:57;;;;;;;206.53;194.97;;;-0.40;99.90;;;;;;5057618;28;20067;-73
2023/12/04 05:32:23;;;;;;;179.10;169.30;;;-0.40;99.90;;;;;;5065750;28;20084;-73
2023/12/04 05:34:49;;;;;;;160.70;151.90;;;-0.40;99.90;;;;;;5063379;28;20032;-73
2023/12/04 05:37:14;;;;;;;234.27;221.97;;;-0.40;99.90;;;;;;5067047;28;20135;-73
2023/12/04 05:39:41;;;;;;;179.17;169.30;;;-0.40;99.90;;;;;;5065237;28;20068;-73
2023/12/04 05:42:07;;;;;;;204.98;194.25;;;-0.40;99.90;;;;;;5071169;28;20060;-73
2023/12/04 05:44:34;;;;;;;222.30;210.40;;;-0.30;99.90;;;;;;5069456;28;20094;-74
2023/12/04 05:47:00;;;;;;;247.57;234.90;;;-0.30;99.90;;;;;;5053195;28;20033;-73
2023/12/04 05:49:26;;;;;;;241.57;229.33;;;-0.30;99.90;;;;;;5065457;28;20052;-73
2023/12/04 05:51:51;;;;;;;194.20;183.73;;;-0.30;99.90;;;;;;5046047;28;20583;-73
2023/12/04 05:54:17;;;;;;;176.50;166.73;;;-0.30;99.90;;;;;;5044630;28;20468;-73
2023/12/04 05:56:43;;;;;;;200.10;189.77;;;-0.30;99.90;;;;;;5066447;28;20059;-73
2023/12/04 05:59:09;;;;;;;202.07;191.30;;;-0.30;99.90;;;;;;5063570;28;20060;-73
2023/12/04 06:01:34;;;;;;;192.77;182.90;;;-0.30;99.90;;;;;;5061903;28;20048;-73
2023/12/04 06:04:00;;;;;;;218.53;206.27;;;-0.30;99.90;;;;;;5058036;28;20037;-73
2023/12/04 06:06:27;;;;;;;209.77;198.47;;;-0.30;99.90;;;;;;5059116;28;20132;-73
2023/12/04 06:08:52;;;;;;;162.07;152.93;;;-0.30;99.90;;;;;;5062282;28;20044;-72
2023/12/04 06:11:18;;;;;;;210.00;198.67;;;-0.30;99.90;;;;;;5050045;28;20108;-73
2023/12/04 06:13:44;;;;;;;195.90;185.73;;;-0.30;99.90;;;;;;5064211;28;20049;-73
2023/12/04 06:16:10;;;;;;;152.93;144.60;;;-0.30;99.90;;;;;;5068072;28;20036;-74
2023/12/04 06:18:35;;;;;;;176.67;167.23;;;-0.30;99.90;;;;;;5060167;28;20044;-74
2023/12/04 06:21:01;;;;;;;205.17;194.63;;;-0.30;99.90;;;;;;5059147;28;20122;-74
2023/12/04 06:23:27;;;;;;;239.47;227.30;;;-0.30;99.90;;;;;;5054431;28;20045;-74
2023/12/04 06:25:53;;;;;;;208.53;197.53;;;-0.40;99.90;;;;;;5038629;28;20500;-74
2023/12/04 06:28:19;;;;;;;180.23;170.48;;;-0.40;99.90;;;;;;5039178;28;20040;-74
2023/12/04 06:30:45;;;;;;;194.37;184.57;;;-0.40;99.90;;;;;;5059991;28;20428;-74
2023/12/04 06:33:12;;;;;;;193.83;184.00;;;-0.40;99.90;;;;;;5041133;28;20846;-74
2023/12/04 06:35:38;;;;;;;162.65;154.05;;;-0.40;99.90;;;;;;5034267;28;20345;-74
2023/12/04 06:38:08;;;;;;;208.48;197.68;;;-0.40;99.90;;;;;;5034401;28;20482;-74
2023/12/04 06:40:35;;;;;;;187.10;177.45;;;-0.40;99.90;;;;;;5052874;28;20033;-75
2023/12/04 06:43:01;;;;;;;161.98;153.63;;;-0.40;99.90;;;;;;5047381;28;20416;-74
2023/12/04 06:45:27;;;;;;;245.82;233.68;;;-0.40;99.90;;;;;;5052536;28;20044;-74
2023/12/04 06:47:54;;;;;;;188.85;179.23;;;-0.40;99.90;;;;;;5057708;28;20089;-75
2023/12/04 06:50:20;;;;;;;171.02;161.98;;;-0.40;99.90;;;;;;5047250;28;20044;-75
2023/12/04 06:52:45;;;;;;;179.75;170.10;;;-0.40;99.90;;;;;;5057510;28;20129;-74
2023/12/04 06:55:12;;;;;;;151.77;143.23;;;-0.40;99.90;;;;;;5044957;28;20044;-74
2023/12/04 06:57:38;;;;;;;234.52;222.85;;;-0.40;99.90;;;;;;5062912;28;20097;-75
2023/12/04 07:00:06;;;;;;;212.07;201.03;;;-0.40;99.90;;;;;;5069508;28;20044;-75
2023/12/04 07:02:32;;;;;;;199.68;189.45;;;-0.40;99.90;;;;;;5049507;28;20116;-75
2023/12/04 07:04:58;;;;;;;238.03;225.47;;;-0.40;99.90;;;;;;5041195;28;20124;-75
2023/12/04 07:07:23;;;;;;;200.93;190.87;;;-0.40;99.90;;;;;;5069191;28;20041;-75
2023/12/04 07:09:49;;;;;;;200.80;190.57;;;-0.40;99.90;;;;;;5064667;28;20552;-75
2023/12/04 07:12:15;;;;;;;174.20;165.23;;;-0.40;99.90;;;;;;5055301;28;20032;-75
2023/12/04 07:14:41;;;;;;;178.97;169.47;;;-0.40;99.90;;;;;;5059304;28;20315;-74
2023/12/04 07:17:07;;;;;;;190.52;180.90;;;-0.40;99.90;;;;;;5054194;28;20090;-74
2023/12/04 07:19:33;;;;;;;192.60;182.87;;;-0.40;99.90;;;;;;5067212;28;20036;-74
2023/12/04 07:21:58;;;;;;;198.23;188.27;;;-0.40;99.90;;;;;;5047886;28;20068;-74
2023/12/04 07:24:26;;;;;;;219.80;208.80;;;-0.40;99.90;;;;;;5056997;28;20072;-74
2023/12/04 07:26:52;;;;;;;201.10;188.57;;;-0.40;99.90;;;;;;5035768;28;20036;-74
2023/12/04 07:29:18;;;;;;;177.65;168.57;;;-0.40;99.90;;;;;;5063988;28;20033;-74
2023/12/04 07:31:44;;;;;;;159.50;151.13;;;-0.40;99.90;;;;;;5034826;28;20057;-74
2023/12/04 07:34:10;;;;;;;211.97;201.43;;;-0.40;99.90;;;;;;5038850;28;20067;-74
2023/12/04 07:36:35;;;;;;;192.33;182.60;;;-0.30;99.90;;;;;;5062338;28;20569;-74
2023/12/04 07:39:01;;;;;;;205.87;195.77;;;-0.40;99.90;;;;;;5060114;28;20041;-74
2023/12/04 07:41:27;;;;;;;172.63;163.77;;;-0.40;99.90;;;;;;5064867;28;20028;-74
2023/12/04 07:43:54;;;;;;;168.37;159.87;;;-0.40;99.90;;;;;;5048854;28;20094;-74
2023/12/04 07:46:20;;;;;;;161.80;153.60;;;-0.40;99.90;;;;;;5067577;28;20032;-74
2023/12/04 07:48:46;;;;;;;163.33;155.00;;;-0.40;99.90;;;;;;5065586;28;20044;-74
2023/12/04 07:51:11;;;;;;;152.27;144.63;;;-0.40;99.90;;;;;;5066274;28;20025;-74
2023/12/04 07:53:37;;;;;;;168.87;159.60;;;-0.30;99.90;;;;;;5064796;28;20289;-75
2023/12/04 07:56:03;;;;;;;115.23;109.13;;;-0.30;99.90;;;;;;5043714;28;20658;-75
2023/12/04 07:58:31;;;;;;;128.07;121.18;;;-0.30;99.90;;;;;;5041727;28;20415;-75
2023/12/04 08:00:57;;;;;;;123.63;116.85;;;-0.30;99.90;;;;;;5038686;28;20128;-74
2023/12/04 08:03:23;;;;;;;154.80;146.90;;;-0.30;99.90;;;;;;5060465;28;20072;-75
2023/12/04 08:05:52;;;;;;;187.55;178.23;;;-0.30;99.90;;;;;;5048391;28;20032;-74
2023/12/04 08:08:18;;;;;;;188.88;179.43;;;-0.30;99.90;;;;;;5062522;28;20115;-74
2023/12/04 08:10:44;;;;;;;177.60;168.73;;;-0.30;99.90;;;;;;5065449;28;20488;-75
2023/12/04 08:13:10;;;;;;;187.57;178.73;;;-0.30;99.90;;;;;;5043122;28;20044;-75
2023/12/04 08:15:35;;;;;;;206.27;196.67;;;-0.30;99.90;;;;;;5051894;28;20380;-74
2023/12/04 08:18:02;;;;;;;155.23;147.53;;;-0.30;99.90;;;;;;5039482;28;20068;-75
2023/12/04 08:20:28;;;;;;;170.75;162.60;;;-0.20;99.90;;;;;;5051678;28;20119;-74
2023/12/04 08:22:54;;;;;;;160.83;152.93;;;-0.20;99.90;;;;;;5053420;28;20127;-75
2023/12/04 08:25:20;;;;;;;227.00;216.27;;;-0.20;99.90;;;;;;5063189;28;20056;-75
2023/12/04 08:27:46;;;;;;;215.27;205.37;;;-0.20;99.90;;;;;;5072603;28;20114;-74
2023/12/04 08:30:12;;;;;;;258.13;245.77;;;-0.20;99.90;;;;;;5068975;28;20045;-74
2023/12/04 08:32:38;;;;;;;160.68;153.10;;;-0.20;99.90;;;;;;5059877;28;20179;-75
2023/12/04 08:35:06;;;;;;;180.77;171.70;;;-0.20;99.90;;;;;;5055674;28;20079;-74
2023/12/04 08:37:31;;;;;;;153.13;145.40;;;-0.10;99.90;;;;;;5042208;28;20124;-74
2023/12/04 08:39:57;;;;;;;160.90;153.07;;;-0.10;99.90;;;;;;5051414;28;20123;-75
2023/12/04 08:42:23;;;;;;;196.93;187.57;;;-0.10;99.90;;;;;;5045272;28;20481;-75
2023/12/04 08:44:49;;;;;;;143.60;136.33;;;-0.10;99.90;;;;;;5048505;28;20389;-75
2023/12/04 08:47:14;;;;;;;216.13;204.70;;;-0.10;99.90;;;;;;5038693;28;20042;-75
2023/12/04 08:49:40;;;;;;;160.27;152.10;;;0.00;99.90;;;;;;5055173;28;20052;-74
2023/12/04 08:52:07;;;;;;;184.97;175.97;;;0.00;99.90;;;;;;5036488;28;20444;-74
2023/12/04 08:54:32;;;;;;;198.85;189.48;;;0.00;99.90;;;;;;5032535;28;20691;-75
2023/12/04 08:56:58;;;;;;;200.87;191.27;;;0.00;99.90;;;;;;5043028;28;20044;-74
2023/12/04 08:59:24;;;;;;;276.47;259.70;;;0.00;99.90;;;;;;5050529;28;20040;-75
2023/12/04 09:01:50;;;;;;;176.07;167.40;;;0.10;99.90;;;;;;5058862;28;20040;-75
2023/12/04 09:04:15;;;;;;;212.13;202.17;;;0.00;99.90;;;;;;5036467;28;20036;-74
2023/12/04 09:06:41;;;;;;;245.17;234.10;;;0.00;99.90;;;;;;5046833;28;20515;-74
2023/12/04 09:09:07;;;;;;;180.83;172.40;;;0.00;99.90;;;;;;5048255;28;20045;-75
2023/12/04 09:11:33;;;;;;;140.68;133.85;;;0.00;99.90;;;;;;5026632;28;20032;-75
2023/12/04 09:13:58;;;;;;;146.40;139.43;;;0.00;99.90;;;;;;5052627;28;20067;-75
2023/12/04 09:16:24;;;;;;;171.97;163.93;;;0.00;99.90;;;;;;5043093;28;20048;-73
2023/12/04 09:18:53;;;;;;;172.70;164.43;;;0.00;99.90;;;;;;5051115;28;20032;-73
2023/12/04 09:21:19;;;;;;;157.90;150.27;;;0.00;99.90;;;;;;5039430;28;20043;-74
2023/12/04 09:23:49;;;;;;;154.47;147.00;;;0.00;99.90;;;;;;5035614;28;20037;-73
2023/12/04 09:26:16;;;;;;;152.85;145.50;;;0.00;99.90;;;;;;5051624;28;20028;-74
2023/12/04 09:28:42;;;;;;;174.30;165.98;;;0.00;99.90;;;;;;5058581;28;20356;-73
2023/12/04 09:31:09;;;;;;;161.13;153.60;;;0.00;99.90;;;;;;5045168;28;20055;-74
2023/12/04 09:33:35;;;;;;;175.88;167.20;;;0.00;99.90;;;;;;5051240;28;20053;-73
2023/12/04 09:36:02;;;;;;;166.07;158.10;;;0.00;99.90;;;;;;5050596;28;20037;-73
2023/12/04 09:38:32;;;;;;;168.20;160.48;;;0.00;99.90;;;;;;5058510;28;20044;-73
2023/12/04 09:41:01;;;;;;;181.27;172.70;;;0.00;99.90;;;;;;5059723;28;20109;-74
2023/12/04 09:43:30;;;;;;;153.00;145.60;;;0.00;99.90;;;;;;5055148;28;20041;-73
2023/12/04 09:45:56;;;;;;;147.90;141.05;;;0.00;99.90;;;;;;5059617;28;20044;-73
2023/12/04 09:48:25;;;;;;;142.70;136.05;;;0.00;99.90;;;;;;5037982;28;20133;-74
2023/12/04 09:50:52;;;;;;;153.27;146.18;;;0.00;99.90;;;;;;5056150;28;20484;-73
2023/12/04 09:53:18;;;;;;;164.00;156.63;;;0.00;99.90;;;;;;5035833;28;20095;-74
2023/12/04 09:55:50;;;;;;;160.98;153.68;;;0.10;99.90;;;;;;5046982;28;20048;-74
2023/12/04 09:58:19;;;;;;;173.90;165.98;;;0.10;99.90;;;;;;5062297;28;20039;-74
2023/12/04 10:00:45;;;;;;;141.43;134.65;;;0.10;99.90;;;;;;5065025;28;20040;-74
2023/12/04 10:03:12;;;;;;;160.52;153.20;;;0.20;99.90;;;;;;5060756;28;20079;-74
2023/12/04 10:05:42;;;;;;;147.43;140.27;;;0.20;99.90;;;;;;5069453;28;20072;-74
2023/12/04 10:08:08;;;;;;;129.25;123.15;;;0.30;99.90;;;;;;5067396;28;20033;-73
2023/12/04 10:10:34;;;;;;;155.87;148.67;;;0.40;99.90;;;;;;5066299;28;20044;-74
2023/12/04 10:13:00;;;;;;;152.57;145.43;;;0.50;99.90;;;;;;5058666;28;20068;-73
2023/12/04 10:15:26;;;;;;;142.55;135.90;;;0.50;99.90;;;;;;5068184;28;20546;-74
2023/12/04 10:17:54;;;;;;;166.73;159.15;;;0.60;99.90;;;;;;5068000;28;20041;-73
2023/12/04 10:20:21;;;;;;;164.63;157.13;;;0.70;99.90;;;;;;5063287;28;20040;-73
2023/12/04 10:23:01;;;;;;;163.07;155.75;;;0.80;99.90;;;;;;5058775;28;20044;-73
2023/12/04 10:25:30;;;;;;;201.00;192.07;;;0.90;99.90;;;;;;5038562;28;20090;-73
2023/12/04 10:28:09;;;;;;;175.38;167.63;;;0.90;99.90;;;;;;5050718;28;20504;-73
2023/12/04 10:30:35;;;;;;;214.10;204.57;;;1.00;99.90;;;;;;5070993;28;20135;-73
2023/12/04 10:33:02;;;;;;;206.20;197.10;;;1.00;99.90;;;;;;5040976;28;20578;-73
2023/12/04 10:35:30;;;;;;;206.90;198.02;;;1.00;99.90;;;;;;5053425;28;20381;-73
2023/12/04 10:37:56;;;;;;;208.43;199.18;;;1.00;99.90;;;;;;5074925;28;20401;-73
2023/12/04 10:40:27;;;;;;;205.88;195.45;;;1.00;99.90;;;;;;5057238;28;20040;-73
2023/12/04 10:43:23;;;;;;;238.98;228.25;;;1.00;99.90;;;;;;5074538;28;20412;-72
2023/12/04 10:45:49;;;;;;;;;;;1.00;99.90;;;;;;5071118;28;20036;-72
2023/12/04 10:48:17;;;;;;;156.68;149.57;;;1.00;99.90;;;;;;5049301;28;20011;-73
2023/12/04 10:50:47;;;;;;;176.60;168.80;;;1.00;99.90;;;;;;5068511;28;20134;-72
2023/12/04 10:53:14;;;;;;;199.35;190.52;;;1.00;99.90;;;;;;5069299;28;20083;-72
2023/12/04 10:55:41;;;;;;;193.25;184.73;;;1.10;99.90;;;;;;5050584;28;20578;-73
2023/12/04 10:58:09;;;;;;;216.80;207.25;;;1.10;99.90;;;;;;5073420;28;20041;-73
2023/12/04 11:00:50;;;;;;;211.68;202.25;;;1.10;99.90;;;;;;5041198;28;20044;-73
2023/12/04 11:03:22;;;;;;;207.73;198.18;;;1.20;99.90;;;;;;5066502;28;20047;-72
2023/12/04 11:05:55;;;;;;;240.70;230.05;;;1.20;99.90;;;;;;5061917;28;20051;-72
2023/12/04 11:08:22;;;;;;;216.40;207.10;;;1.20;99.90;;;;;;5041286;28;20462;-73
2023/12/04 11:11:09;;;;;;;187.38;178.80;;;1.10;99.90;;;;;;5052844;28;20044;-73
2023/12/04 11:13:42;;;;;;;228.60;218.52;;;1.20;99.90;;;;;;5057177;28;20442;-73
2023/12/04 11:16:25;;;;;;;220.35;210.70;;;1.10;99.90;;;;;;5049904;28;20535;-73
2023/12/04 11:19:04;;;;;;;170.05;162.35;;;1.10;99.90;;;;;;5049871;28;20036;-72
2023/12/04 11:21:40;;;;;;;171.52;163.57;;;1.10;99.90;;;;;;5056947;28;20048;-72
2023/12/04 11:24:14;;;;;;;225.00;215.18;;;1.10;99.90;;;;;;5044509;28;20131;-72
2023/12/04 11:26:44;;;;;;;206.57;197.65;;;1.10;99.90;;;;;;5056471;28;20044;-72
2023/12/04 11:29:12;;;;;;;208.48;199.25;;;1.10;99.90;;;;;;5071680;28;20063;-71
2023/12/04 11:31:38;;;;;;;218.55;208.88;;;1.20;99.90;;;;;;5056842;28;20060;-72
2023/12/04 11:34:04;;;;;;;213.33;203.73;;;1.20;99.90;;;;;;5055487;28;20425;-71
2023/12/04 11:36:30;;;;;;;219.80;210.25;;;1.20;99.90;;;;;;5055576;28;20464;-71
2023/12/04 11:39:00;;;;;;;279.93;267.67;;;1.20;99.90;;;;;;5045659;28;20044;-72
2023/12/04 11:41:25;;;;;;;206.65;197.48;;;1.20;99.90;;;;;;5072875;28;20093;-71
2023/12/04 11:43:52;;;;;;;232.83;222.83;;;1.30;99.90;;;;;;5066724;28;20044;-71
2023/12/04 11:46:26;;;;;;;227.38;217.50;;;1.30;99.90;;;;;;5063867;28;20367;-72
2023/12/04 11:48:57;;;;;;;239.02;228.85;;;1.30;99.90;;;;;;5062371;28;20458;-71
2023/12/04 11:51:42;;;;;;;220.68;211.00;;;1.30;99.90;;;;;;5055499;28;20041;-71
2023/12/04 11:54:09;;;;;;;206.30;197.23;;;1.30;99.90;;;;;;5037057;28;20041;-70
2023/12/04 11:56:35;;;;;;;215.70;206.25;;;1.40;99.90;;;;;;5064606;28;20428;-70
2023/12/04 11:59:05;;;;;;;231.37;221.37;;;1.40;99.90;;;;;;5070863;28;20029;-71
2023/12/04 12:01:36;;;;;;;233.73;223.48;;;1.40;99.90;;;;;;5047135;28;20040;-71
2023/12/04 12:04:05;;;;;;;250.63;239.63;;;1.40;99.90;;;;;;5046059;28;20089;-70
2023/12/04 12:06:31;;;;;;;256.85;245.63;;;1.30;99.90;;;;;;5053526;28;20089;-71
2023/12/04 12:08:56;;;;;;;275.97;264.00;;;1.30;99.90;;;;;;5055962;28;20116;-72